Time;durP1;ratioP1;P1;durP2;ratioP2;P2;SDS_P1;SDS_P2;PMS_P1;PMS_P2;Temp;Humidity;BMP_temperature;BMP_pressure;BME280_temperature;BME280_humidity;BME280_pressure;Samples;Min_cycle;Max_cycle;Signal;HPM_P1;HPM_P2
2023/10/26 00:00:01;;;;;;;1.40;1.30;;;;;;;;;;8083383;29;20515;-72
2023/10/26 00:04:01;;;;;;;1.58;1.17;;;;;;;;;;8083193;29;20155;-72
2023/10/26 00:08:02;;;;;;;1.70;1.60;;;;;;;;;;8087652;29;20063;-72
2023/10/26 00:12:02;;;;;;;1.73;1.30;;;;;;;;;;8080863;29;20035;-72
2023/10/26 00:16:03;;;;;;;1.20;1.10;;;;;;;;;;8085814;28;20126;-72
2023/10/26 00:20:07;;;;;;;1.20;1.20;;;;;;;;;;8076671;29;20028;-71
2023/10/26 00:24:07;;;;;;;7.60;1.20;;;;;;;;;;8076630;29;20031;-71
2023/10/26 00:28:07;;;;;;;3.15;1.10;;;;;;;;;;8083197;29;20044;-72
2023/10/26 00:32:08;;;;;;;1.00;0.90;;;;;;;;;;8078642;29;20048;-72
2023/10/26 00:36:08;;;;;;;0.83;0.83;;;;;;;;;;8075749;29;20051;-72
2023/10/26 00:40:08;;;;;;;1.08;1.08;;;;;;;;;;8082090;29;20024;-71
2023/10/26 00:44:08;;;;;;;1.30;1.23;;;;;;;;;;8078716;29;20024;-71
2023/10/26 00:48:09;;;;;;;1.58;1.20;;;;;;;;;;8077123;29;20055;-72
2023/10/26 00:52:09;;;;;;;1.40;1.30;;;;;;;;;;8081907;29;20035;-72
2023/10/26 00:56:10;;;;;;;1.40;1.30;;;;;;;;;;8077243;29;20283;-72
2023/10/26 01:00:12;;;;;;;1.50;1.40;;;;;;;;;;8075632;29;20036;-72
2023/10/26 01:04:15;;;;;;;1.38;1.27;;;;;;;;;;8079353;29;20146;-71
2023/10/26 01:08:15;;;;;;;1.80;1.70;;;;;;;;;;8095294;29;20032;-71
2023/10/26 01:12:16;;;;;;;1.70;1.60;;;;;;;;;;8091376;29;20039;-72
2023/10/26 01:16:17;;;;;;;5.00;1.40;;;;;;;;;;8089478;29;20284;-72
2023/10/26 01:20:18;;;;;;;1.80;1.27;;;;;;;;;;8088578;29;20481;-71
2023/10/26 01:24:18;;;;;;;1.40;1.30;;;;;;;;;;8093599;29;20445;-71
2023/10/26 01:28:18;;;;;;;1.27;1.25;;;;;;;;;;8093394;29;20046;-71
2023/10/26 01:32:20;;;;;;;1.45;1.35;;;;;;;;;;8092582;29;20036;-72
2023/10/26 01:36:20;;;;;;;1.27;1.17;;;;;;;;;;8088151;29;20039;-72
2023/10/26 01:40:20;;;;;;;1.27;1.20;;;;;;;;;;8089418;29;20118;-71
2023/10/26 01:44:21;;;;;;;1.30;1.20;;;;;;;;;;8090295;29;20043;-71
2023/10/26 01:48:22;;;;;;;1.42;1.33;;;;;;;;;;8090360;29;20403;-72
2023/10/26 01:52:23;;;;;;;1.38;1.27;;;;;;;;;;8090141;29;20031;-72
2023/10/26 01:56:23;;;;;;;1.80;1.40;;;;;;;;;;8103309;28;20535;-72
2023/10/26 02:00:23;;;;;;;4.07;1.20;;;;;;;;;;8088943;29;20044;-71
2023/10/26 02:04:23;;;;;;;1.10;1.10;;;;;;;;;;8090677;29;20854;-71
2023/10/26 02:08:23;;;;;;;1.85;1.30;;;;;;;;;;8087621;29;20346;-72
2023/10/26 02:12:24;;;;;;;1.20;1.20;;;;;;;;;;8088552;29;20071;-71
2023/10/26 02:16:24;;;;;;;1.35;1.23;;;;;;;;;;8089406;29;20537;-71
2023/10/26 02:20:24;;;;;;;2.85;1.20;;;;;;;;;;8092274;29;20493;-72
2023/10/26 02:24:24;;;;;;;1.20;1.10;;;;;;;;;;8087647;29;20032;-71
2023/10/26 02:28:25;;;;;;;2.30;1.40;;;;;;;;;;8091613;29;20036;-71
2023/10/26 02:32:26;;;;;;;1.60;1.50;;;;;;;;;;8094589;29;20036;-72
2023/10/26 02:36:26;;;;;;;4.53;1.20;;;;;;;;;;8097239;29;20906;-72
2023/10/26 02:40:26;;;;;;;1.27;1.08;;;;;;;;;;8093756;29;20020;-72
2023/10/26 02:44:27;;;;;;;1.33;1.30;;;;;;;;;;8094147;29;20031;-71
2023/10/26 02:48:27;;;;;;;4.72;1.30;;;;;;;;;;8108228;28;21303;-71
2023/10/26 02:52:27;;;;;;;1.88;1.20;;;;;;;;;;8091903;29;20032;-72
2023/10/26 02:56:27;;;;;;;1.10;1.10;;;;;;;;;;8093238;29;20027;-72
2023/10/26 03:00:27;;;;;;;1.27;1.13;;;;;;;;;;8091778;29;20267;-71
2023/10/26 03:04:28;;;;;;;1.20;1.10;;;;;;;;;;8095381;29;20314;-71
2023/10/26 03:08:28;;;;;;;1.30;1.20;;;;;;;;;;8094412;29;22370;-73
2023/10/26 03:12:28;;;;;;;1.88;1.23;;;;;;;;;;8094720;29;20031;-73
2023/10/26 03:16:28;;;;;;;1.60;1.50;;;;;;;;;;8092655;29;23597;-71
2023/10/26 03:20:29;;;;;;;1.60;1.50;;;;;;;;;;8091204;29;20020;-71
2023/10/26 03:24:29;;;;;;;1.65;1.30;;;;;;;;;;8095200;29;20667;-71
2023/10/26 03:28:29;;;;;;;1.30;1.20;;;;;;;;;;8095097;29;22877;-72
2023/10/26 03:32:29;;;;;;;1.50;1.40;;;;;;;;;;8090222;29;20051;-72
2023/10/26 03:36:29;;;;;;;1.40;1.30;;;;;;;;;;8094202;29;20040;-73
2023/10/26 03:40:30;;;;;;;1.80;1.30;;;;;;;;;;8094508;29;20024;-72
2023/10/26 03:44:30;;;;;;;1.52;1.42;;;;;;;;;;8091095;29;20038;-71
2023/10/26 03:48:31;;;;;;;1.20;1.20;;;;;;;;;;8092051;29;20044;-71
2023/10/26 03:52:31;;;;;;;1.55;1.30;;;;;;;;;;8089421;29;20350;-72
2023/10/26 03:56:31;;;;;;;1.90;1.27;;;;;;;;;;8091845;29;20064;-72
2023/10/26 04:00:32;;;;;;;1.33;1.23;;;;;;;;;;8088214;29;20067;-72
2023/10/26 04:04:32;;;;;;;2.22;1.20;;;;;;;;;;8088304;29;20036;-72
2023/10/26 04:08:32;;;;;;;1.27;1.17;;;;;;;;;;8090705;29;20056;-71
2023/10/26 04:12:32;;;;;;;1.20;1.10;;;;;;;;;;8090408;29;20043;-72
2023/10/26 04:16:32;;;;;;;2.35;1.20;;;;;;;;;;8099419;29;20464;-72
2023/10/26 04:20:33;;;;;;;1.30;1.20;;;;;;;;;;8090904;29;20028;-73
2023/10/26 04:24:33;;;;;;;2.20;1.40;;;;;;;;;;8087021;29;20028;-72
2023/10/26 04:28:33;;;;;;;1.70;1.20;;;;;;;;;;8086483;29;20071;-72
2023/10/26 04:32:33;;;;;;;1.30;1.20;;;;;;;;;;8088844;29;20074;-72
2023/10/26 04:36:33;;;;;;;1.25;1.15;;;;;;;;;;8088332;29;20031;-72
2023/10/26 04:40:34;;;;;;;1.40;1.30;;;;;;;;;;8081756;29;20481;-72
2023/10/26 04:44:34;;;;;;;1.50;1.40;;;;;;;;;;8080932;29;20031;-72
2023/10/26 04:48:35;;;;;;;1.50;1.35;;;;;;;;;;8084281;29;20140;-72
2023/10/26 04:52:35;;;;;;;1.40;1.30;;;;;;;;;;8075289;29;20035;-71
2023/10/26 04:56:35;;;;;;;1.40;1.30;;;;;;;;;;8079240;29;20032;-71
2023/10/26 05:00:35;;;;;;;2.60;1.58;;;;;;;;;;8077411;29;20128;-71
2023/10/26 05:04:36;;;;;;;2.08;1.50;;;;;;;;;;8082275;29;20058;-71
2023/10/26 05:08:36;;;;;;;1.30;1.20;;;;;;;;;;8087973;29;20061;-72
2023/10/26 05:12:36;;;;;;;1.40;1.27;;;;;;;;;;8095159;29;20024;-73
2023/10/26 05:16:37;;;;;;;1.55;1.30;;;;;;;;;;8090610;29;20370;-71
2023/10/26 05:20:37;;;;;;;1.75;1.35;;;;;;;;;;8093310;29;20024;-73
2023/10/26 05:24:38;;;;;;;1.95;1.20;;;;;;;;;;8093634;29;20422;-72
2023/10/26 05:28:39;;;;;;;1.85;1.58;;;;;;;;;;8098264;29;20106;-72
2023/10/26 05:32:39;;;;;;;1.48;1.38;;;;;;;;;;8094396;29;20040;-72
2023/10/26 05:36:39;;;;;;;1.65;1.10;;;;;;;;;;8095223;29;20086;-72
2023/10/26 05:40:47;;;;;;;2.33;1.17;;;;;;;;;;8095282;29;20035;-73
2023/10/26 05:44:47;;;;;;;3.60;1.70;;;;;;;;;;8096234;29;20031;-71
2023/10/26 05:48:47;;;;;;;3.13;1.83;;;;;;;;;;8099216;29;20657;-71
2023/10/26 05:52:47;;;;;;;3.78;2.20;;;;;;;;;;8095632;29;20336;-72
2023/10/26 05:56:48;;;;;;;6.53;2.55;;;;;;;;;;8099225;29;20094;-72
2023/10/26 06:00:48;;;;;;;7.45;2.05;;;;;;;;;;8097970;29;20752;-71
2023/10/26 06:04:49;;;;;;;4.40;1.85;;;;;;;;;;8097725;29;20035;-72
2023/10/26 06:08:49;;;;;;;7.22;2.10;;;;;;;;;;8111998;29;20040;-73
2023/10/26 06:12:49;;;;;;;8.40;2.08;;;;;;;;;;8101107;29;20024;-71
2023/10/26 06:16:50;;;;;;;4.15;2.25;;;;;;;;;;8103879;29;20046;-73
2023/10/26 06:20:57;;;;;;;5.15;1.67;;;;;;;;;;8108846;29;20035;-78
2023/10/26 06:24:59;;;;;;;3.78;1.65;;;;;;;;;;8116906;29;20430;-78
2023/10/26 06:28:59;;;;;;;4.82;1.50;;;;;;;;;;8116439;29;20176;-78
2023/10/26 06:33:00;;;;;;;4.68;1.73;;;;;;;;;;8110861;29;20085;-79
2023/10/26 06:37:00;;;;;;;5.38;1.92;;;;;;;;;;8104794;29;20023;-78
2023/10/26 06:41:01;;;;;;;3.25;1.83;;;;;;;;;;8105997;29;20094;-79
2023/10/26 06:45:02;;;;;;;2.60;1.52;;;;;;;;;;8106144;29;20024;-79
2023/10/26 06:49:03;;;;;;;8.23;1.80;;;;;;;;;;8108995;29;20116;-79
2023/10/26 06:53:03;;;;;;;5.95;1.88;;;;;;;;;;8107564;29;20035;-80
2023/10/26 06:57:04;;;;;;;4.40;1.83;;;;;;;;;;8099375;29;20023;-79
2023/10/26 07:01:06;;;;;;;5.32;1.67;;;;;;;;;;8093315;29;20876;-81
2023/10/26 07:05:06;;;;;;;4.53;2.00;;;;;;;;;;8098804;29;20035;-79
2023/10/26 07:09:07;;;;;;;5.45;2.15;;;;;;;;;;8092791;29;20028;-79
2023/10/26 07:13:08;;;;;;;3.77;1.67;;;;;;;;;;8094045;29;20035;-79
2023/10/26 07:17:08;;;;;;;4.60;1.90;;;;;;;;;;8096573;29;20494;-79
2023/10/26 07:21:08;;;;;;;5.35;2.13;;;;;;;;;;8090682;29;20991;-79
2023/10/26 07:25:09;;;;;;;14.75;8.65;;;;;;;;;;8100976;29;20042;-80
2023/10/26 07:29:09;;;;;;;8.27;3.30;;;;;;;;;;8090471;29;20102;-81
2023/10/26 07:33:09;;;;;;;2.97;2.33;;;;;;;;;;8090480;29;20043;-81
2023/10/26 07:37:09;;;;;;;4.63;2.70;;;;;;;;;;8086998;29;20076;-79
2023/10/26 07:41:10;;;;;;;3.70;2.97;;;;;;;;;;8089641;29;20023;-80
2023/10/26 07:45:10;;;;;;;2.88;2.17;;;;;;;;;;8091276;29;20287;-80
2023/10/26 07:49:10;;;;;;;2.08;1.83;;;;;;;;;;8092058;29;20056;-80
2023/10/26 07:53:11;;;;;;;2.28;2.13;;;;;;;;;;8087808;29;20028;-81
2023/10/26 07:57:11;;;;;;;2.55;2.35;;;;;;;;;;8086523;29;20071;-79
2023/10/26 08:01:12;;;;;;;3.30;2.07;;;;;;;;;;8084021;29;20858;-79
2023/10/26 08:05:15;;;;;;;2.95;2.50;;;;;;;;;;8085832;29;20937;-79
2023/10/26 08:09:15;;;;;;;3.78;2.72;;;;;;;;;;8092081;29;20131;-78
2023/10/26 08:13:16;;;;;;;4.57;2.65;;;;;;;;;;8087121;29;20122;-79
2023/10/26 08:17:16;;;;;;;4.23;2.70;;;;;;;;;;8088489;29;20054;-80
2023/10/26 08:21:16;;;;;;;3.88;3.03;;;;;;;;;;8099983;28;20383;-81
2023/10/26 08:25:17;;;;;;;13.10;3.90;;;;;;;;;;8089925;29;20028;-81
2023/10/26 08:29:17;;;;;;;5.85;3.90;;;;;;;;;;8090486;29;20032;-81
2023/10/26 08:33:17;;;;;;;5.97;3.60;;;;;;;;;;8082544;29;20040;-78
2023/10/26 08:37:17;;;;;;;4.85;2.90;;;;;;;;;;8088152;29;20454;-81
2023/10/26 08:41:18;;;;;;;3.25;2.30;;;;;;;;;;8086665;29;20028;-80
2023/10/26 08:45:23;;;;;;;2.55;1.85;;;;;;;;;;8083134;29;20031;-79
2023/10/26 08:49:26;;;;;;;2.30;2.05;;;;;;;;;;8082214;29;20035;-79
2023/10/26 08:53:26;;;;;;;3.95;2.10;;;;;;;;;;8089099;29;20019;-73
2023/10/26 08:57:26;;;;;;;3.90;2.15;;;;;;;;;;8081515;29;21371;-73
2023/10/26 09:01:26;;;;;;;3.05;2.40;;;;;;;;;;8081018;29;20153;-74
2023/10/26 09:05:27;;;;;;;3.25;2.00;;;;;;;;;;8082673;29;20024;-73
2023/10/26 09:09:27;;;;;;;5.43;2.13;;;;;;;;;;8084260;29;20043;-74
2023/10/26 09:13:28;;;;;;;2.00;1.90;;;;;;;;;;8085634;29;21500;-77
2023/10/26 09:17:29;;;;;;;4.05;1.73;;;;;;;;;;8081545;29;20185;-76
2023/10/26 09:21:29;;;;;;;2.10;1.90;;;;;;;;;;8082641;29;20028;-81
2023/10/26 09:25:29;;;;;;;4.07;1.97;;;;;;;;;;8083942;29;23215;-80
2023/10/26 09:29:35;;;;;;;4.15;2.30;;;;;;;;;;8089906;29;20329;-80
2023/10/26 09:33:36;;;;;;;3.53;2.65;;;;;;;;;;8089304;29;20043;-80
2023/10/26 09:37:50;;;;;;;2.92;2.63;;;;;;;;;;8087845;29;20055;-80
2023/10/26 09:41:50;;;;;;;7.32;5.25;;;;;;;;;;8088155;29;20791;-80
2023/10/26 09:45:51;;;;;;;6.07;4.40;;;;;;;;;;8090051;29;20198;-80
2023/10/26 09:49:52;;;;;;;6.28;4.47;;;;;;;;;;8084663;29;20159;-80
2023/10/26 09:53:52;;;;;;;5.07;4.57;;;;;;;;;;8088514;29;20100;-79
2023/10/26 09:57:52;;;;;;;5.32;4.82;;;;;;;;;;8086894;29;20098;-79
2023/10/26 10:01:52;;;;;;;5.70;4.63;;;;;;;;;;8086361;29;20029;-80
2023/10/26 10:05:53;;;;;;;5.47;4.70;;;;;;;;;;8077793;29;20055;-71
2023/10/26 10:10:06;;;;;;;5.13;4.50;;;;;;;;;;8076282;29;20275;-70
2023/10/26 10:14:07;;;;;;;3.57;3.07;;;;;;;;;;8086128;29;20031;-81
2023/10/26 10:18:07;;;;;;;1.98;1.80;;;;;;;;;;8081777;29;20043;-80
2023/10/26 10:22:27;;;;;;;2.63;1.90;;;;;;;;;;8086648;29;20674;-81
2023/10/26 10:26:46;;;;;;;2.85;2.55;;;;;;;;;;8086546;29;20102;-81
2023/10/26 10:30:57;;;;;;;2.70;2.50;;;;;;;;;;8082863;29;20582;-81
2023/10/26 10:34:59;;;;;;;3.40;3.10;;;;;;;;;;8080352;29;20039;-79
2023/10/26 10:39:19;;;;;;;3.35;3.05;;;;;;;;;;8081873;29;20059;-79
2023/10/26 10:43:31;;;;;;;3.00;2.72;;;;;;;;;;8083145;29;20031;-79
2023/10/26 10:47:31;;;;;;;2.92;2.50;;;;;;;;;;8081029;29;20378;-79
2023/10/26 10:51:42;;;;;;;4.65;3.10;;;;;;;;;;8086299;29;20113;-81
2023/10/26 10:55:43;;;;;;;6.53;2.60;;;;;;;;;;8093642;29;20151;-80
2023/10/26 10:59:43;;;;;;;2.90;2.30;;;;;;;;;;8090363;29;20599;-79
2023/10/26 11:03:43;;;;;;;2.75;2.10;;;;;;;;;;8097893;29;20032;-79
2023/10/26 11:07:44;;;;;;;2.30;2.10;;;;;;;;;;8092779;29;20028;-80
2023/10/26 11:11:44;;;;;;;2.60;2.40;;;;;;;;;;8089696;29;20044;-80
2023/10/26 11:15:45;;;;;;;2.53;2.33;;;;;;;;;;8092942;29;20068;-79
2023/10/26 11:19:46;;;;;;;2.83;2.45;;;;;;;;;;8091370;29;20035;-79
2023/10/26 11:23:51;;;;;;;2.92;2.60;;;;;;;;;;8097842;28;20020;-79
2023/10/26 11:27:51;;;;;;;2.40;2.20;;;;;;;;;;8084114;29;20032;-78
2023/10/26 11:31:51;;;;;;;2.80;2.17;;;;;;;;;;8086518;29;20035;-78
2023/10/26 11:35:51;;;;;;;4.85;4.15;;;;;;;;;;8086219;29;20110;-78
2023/10/26 11:39:51;;;;;;;3.35;2.58;;;;;;;;;;8087871;29;20853;-78
2023/10/26 11:43:52;;;;;;;2.63;2.17;;;;;;;;;;8086920;29;20044;-79
2023/10/26 11:47:52;;;;;;;2.97;2.75;;;;;;;;;;8086921;29;20051;-80
2023/10/26 11:51:53;;;;;;;4.93;3.83;;;;;;;;;;8088415;29;20980;-80
2023/10/26 11:55:53;;;;;;;9.25;5.45;;;;;;;;;;8089737;29;20039;-80
2023/10/26 11:59:53;;;;;;;13.13;7.10;;;;;;;;;;8090080;29;20028;-79
2023/10/26 12:03:53;;;;;;;8.50;5.47;;;;;;;;;;8083645;29;20668;-79
2023/10/26 12:07:54;;;;;;;8.98;5.30;;;;;;;;;;8088819;29;20376;-79
2023/10/26 12:11:54;;;;;;;10.75;5.93;;;;;;;;;;8087584;29;20039;-81
2023/10/26 12:15:55;;;;;;;6.90;5.03;;;;;;;;;;8085601;29;20385;-80
2023/10/26 12:19:55;;;;;;;4.90;3.60;;;;;;;;;;8083192;29;20016;-80
2023/10/26 12:23:56;;;;;;;10.37;6.70;;;;;;;;;;8091335;29;20028;-81
2023/10/26 12:27:58;;;;;;;9.00;5.78;;;;;;;;;;8084086;29;20104;-80
2023/10/26 12:31:58;;;;;;;6.40;3.88;;;;;;;;;;8086808;29;20047;-81
2023/10/26 12:35:59;;;;;;;10.70;5.82;;;;;;;;;;8087023;29;20036;-80
2023/10/26 12:39:59;;;;;;;7.18;4.10;;;;;;;;;;8087025;29;20024;-81
2023/10/26 12:43:59;;;;;;;8.75;4.57;;;;;;;;;;8094050;29;20030;-81
2023/10/26 12:47:59;;;;;;;15.90;5.63;;;;;;;;;;8104631;28;20040;-80
2023/10/26 12:52:00;;;;;;;10.98;4.80;;;;;;;;;;8091573;29;20051;-81
2023/10/26 12:56:01;;;;;;;9.50;4.38;;;;;;;;;;8091816;29;20780;-81
2023/10/26 13:00:01;;;;;;;6.38;3.63;;;;;;;;;;8086593;29;20065;-80
2023/10/26 13:04:01;;;;;;;6.40;3.60;;;;;;;;;;8089156;29;20044;-80
2023/10/26 13:08:02;;;;;;;5.83;3.20;;;;;;;;;;8088240;29;20079;-80
2023/10/26 13:12:03;;;;;;;10.10;8.10;;;;;;;;;;8086458;29;20439;-81
2023/10/26 13:16:06;;;;;;;13.35;9.30;;;;;;;;;;8082993;29;20851;-80
2023/10/26 13:20:07;;;;;;;7.50;5.20;;;;;;;;;;8085981;29;20023;-81
2023/10/26 13:24:07;;;;;;;4.80;3.65;;;;;;;;;;8099640;28;20770;-81
2023/10/26 13:28:07;;;;;;;3.70;3.40;;;;;;;;;;8087178;29;20770;-80
2023/10/26 13:32:08;;;;;;;3.42;2.60;;;;;;;;;;8087112;29;20288;-80
2023/10/26 13:36:08;;;;;;;3.72;2.40;;;;;;;;;;8087703;29;20039;-80
2023/10/26 13:40:09;;;;;;;1.70;1.60;;;;;;;;;;8086555;29;20149;-80
2023/10/26 13:44:09;;;;;;;2.08;1.85;;;;;;;;;;8086871;29;20402;-80
2023/10/26 13:48:09;;;;;;;1.95;1.85;;;;;;;;;;8090446;29;20155;-81
2023/10/26 13:52:09;;;;;;;2.50;2.30;;;;;;;;;;8097880;28;20035;-81
2023/10/26 13:56:10;;;;;;;4.33;2.30;;;;;;;;;;8085087;29;20024;-80
2023/10/26 14:00:11;;;;;;;1.60;1.50;;;;;;;;;;8087764;29;20166;-80
2023/10/26 14:04:12;;;;;;;1.40;1.30;;;;;;;;;;8089211;29;20306;-80
2023/10/26 14:08:12;;;;;;;1.17;1.08;;;;;;;;;;8084545;29;20028;-80
2023/10/26 14:12:13;;;;;;;1.17;1.05;;;;;;;;;;8085507;29;20032;-80
2023/10/26 14:16:15;;;;;;;0.80;0.80;;;;;;;;;;8082492;29;20048;-79
2023/10/26 14:20:15;;;;;;;2.20;0.88;;;;;;;;;;8080623;29;20031;-79
2023/10/26 14:24:15;;;;;;;2.83;0.80;;;;;;;;;;8080872;29;20548;-79
2023/10/26 14:28:16;;;;;;;0.60;0.60;;;;;;;;;;8085962;29;20720;-78
2023/10/26 14:32:16;;;;;;;1.13;0.63;;;;;;;;;;8085875;29;20323;-79
2023/10/26 14:36:16;;;;;;;1.93;0.87;;;;;;;;;;8088124;29;20104;-81
2023/10/26 14:40:17;;;;;;;1.70;0.70;;;;;;;;;;8095833;29;20039;-80
2023/10/26 14:44:17;;;;;;;2.47;0.70;;;;;;;;;;8083906;29;20060;-80
2023/10/26 14:48:18;;;;;;;1.00;0.90;;;;;;;;;;8089879;29;20885;-80
2023/10/26 14:52:18;;;;;;;1.85;0.70;;;;;;;;;;8091160;29;20040;-80
2023/10/26 14:56:18;;;;;;;1.33;0.90;;;;;;;;;;8091039;29;20882;-80
2023/10/26 15:00:20;;;;;;;3.47;1.02;;;;;;;;;;8084794;29;20024;-80
2023/10/26 15:04:20;;;;;;;2.67;0.90;;;;;;;;;;8083407;29;20024;-80
2023/10/26 15:08:20;;;;;;;2.57;0.90;;;;;;;;;;8087582;29;20034;-80
2023/10/26 15:12:20;;;;;;;6.18;1.58;;;;;;;;;;8087062;29;20341;-80
2023/10/26 15:16:21;;;;;;;7.28;1.15;;;;;;;;;;8084339;29;20067;-80
2023/10/26 15:20:21;;;;;;;4.73;1.20;;;;;;;;;;8081965;29;20480;-80
2023/10/26 15:24:21;;;;;;;2.47;1.30;;;;;;;;;;8083481;29;20705;-80
2023/10/26 15:28:21;;;;;;;4.53;1.20;;;;;;;;;;8087728;29;20148;-80
2023/10/26 15:32:22;;;;;;;1.67;1.02;;;;;;;;;;8084518;29;20040;-80
2023/10/26 15:36:22;;;;;;;2.03;1.10;;;;;;;;;;8098918;28;20056;-80
2023/10/26 15:40:22;;;;;;;2.55;0.80;;;;;;;;;;8083670;29;20122;-80
2023/10/26 15:44:23;;;;;;;0.70;0.70;;;;;;;;;;8084932;29;20665;-80
2023/10/26 15:48:24;;;;;;;0.80;0.70;;;;;;;;;;8077157;29;20040;-80
2023/10/26 15:52:24;;;;;;;1.67;0.80;;;;;;;;;;8079676;29;20040;-79
2023/10/26 15:56:24;;;;;;;1.90;0.60;;;;;;;;;;8082095;29;20031;-80
2023/10/26 16:00:24;;;;;;;1.02;0.60;;;;;;;;;;8089937;29;20040;-79
2023/10/26 16:04:25;;;;;;;2.05;0.70;;;;;;;;;;8090989;29;20030;-80
2023/10/26 16:08:25;;;;;;;0.95;0.50;;;;;;;;;;8092152;29;20038;-80
2023/10/26 16:12:25;;;;;;;0.95;0.70;;;;;;;;;;8089881;29;20020;-80
2023/10/26 16:16:25;;;;;;;0.93;0.75;;;;;;;;;;8084842;29;20046;-81
2023/10/26 16:20:26;;;;;;;0.80;0.80;;;;;;;;;;8083841;29;20062;-81
2023/10/26 16:24:26;;;;;;;0.80;0.70;;;;;;;;;;8089362;29;20023;-81
2023/10/26 16:28:26;;;;;;;0.63;0.63;;;;;;;;;;8089721;29;20027;-80
2023/10/26 16:32:26;;;;;;;0.93;0.70;;;;;;;;;;8084937;29;20064;-81
2023/10/26 16:36:27;;;;;;;0.70;0.68;;;;;;;;;;8088060;29;20102;-81
2023/10/26 16:40:27;;;;;;;1.52;0.77;;;;;;;;;;8103415;28;20763;-80
2023/10/26 16:44:27;;;;;;;0.98;0.80;;;;;;;;;;8090939;29;20143;-81
2023/10/26 16:48:27;;;;;;;2.10;1.00;;;;;;;;;;8085434;29;20089;-81
2023/10/26 16:52:28;;;;;;;1.65;1.00;;;;;;;;;;8089858;29;21530;-81
2023/10/26 16:56:29;;;;;;;4.78;1.00;;;;;;;;;;8088697;29;20032;-81
2023/10/26 17:00:29;;;;;;;3.45;1.35;;;;;;;;;;8090262;29;20079;-81
2023/10/26 17:04:29;;;;;;;5.18;1.40;;;;;;;;;;8103208;28;21098;-81
2023/10/26 17:08:30;;;;;;;4.22;1.20;;;;;;;;;;8090627;29;20032;-81
2023/10/26 17:12:30;;;;;;;5.63;1.60;;;;;;;;;;8090175;29;20034;-74
2023/10/26 17:16:31;;;;;;;3.03;1.40;;;;;;;;;;8086989;29;20040;-74
2023/10/26 17:20:31;;;;;;;3.60;1.77;;;;;;;;;;8078513;29;20039;-70
2023/10/26 17:24:32;;;;;;;4.80;1.60;;;;;;;;;;8087562;29;20047;-70
2023/10/26 17:28:33;;;;;;;6.50;1.50;;;;;;;;;;8086118;29;20111;-70
2023/10/26 17:32:35;;;;;;;4.87;1.60;;;;;;;;;;8085631;29;20051;-70
2023/10/26 17:36:35;;;;;;;5.47;1.65;;;;;;;;;;8086415;29;20035;-71
2023/10/26 17:40:35;;;;;;;4.53;1.50;;;;;;;;;;8088693;29;20032;-70
2023/10/26 17:44:35;;;;;;;7.60;1.88;;;;;;;;;;8087450;29;20043;-69
2023/10/26 17:48:35;;;;;;;5.07;1.60;;;;;;;;;;8088888;29;22659;-70
2023/10/26 17:52:37;;;;;;;8.38;1.80;;;;;;;;;;8089334;29;20720;-69
2023/10/26 17:56:37;;;;;;;6.90;1.58;;;;;;;;;;8090029;29;20126;-70
2023/10/26 18:00:37;;;;;;;6.97;1.55;;;;;;;;;;8088560;29;20080;-70
2023/10/26 18:04:38;;;;;;;4.93;1.60;;;;;;;;;;8092590;29;20036;-70
2023/10/26 18:08:39;;;;;;;8.23;1.90;;;;;;;;;;8094380;29;20283;-70
2023/10/26 18:12:40;;;;;;;11.60;1.92;;;;;;;;;;8094109;29;20071;-70
2023/10/26 18:16:40;;;;;;;7.18;1.63;;;;;;;;;;8093560;29;20043;-69
2023/10/26 18:20:49;;;;;;;11.80;2.33;;;;;;;;;;8092256;29;20020;-70
2023/10/26 18:24:50;;;;;;;10.65;2.28;;;;;;;;;;8094164;29;20087;-70
2023/10/26 18:28:50;;;;;;;17.67;2.33;;;;;;;;;;8091837;29;20031;-69
2023/10/26 18:32:50;;;;;;;8.37;1.90;;;;;;;;;;8095013;29;20322;-70
2023/10/26 18:36:52;;;;;;;11.57;2.05;;;;;;;;;;8091822;29;20291;-68
2023/10/26 18:40:53;;;;;;;10.13;2.20;;;;;;;;;;8086553;29;20063;-68
2023/10/26 18:44:53;;;;;;;12.52;2.25;;;;;;;;;;8086157;29;20028;-67
2023/10/26 18:48:53;;;;;;;13.77;2.20;;;;;;;;;;8087566;29;20858;-68
2023/10/26 18:52:54;;;;;;;8.95;2.00;;;;;;;;;;8092370;29;20473;-70
2023/10/26 18:56:54;;;;;;;14.30;1.80;;;;;;;;;;8088645;29;20024;-70
2023/10/26 19:00:54;;;;;;;12.00;2.13;;;;;;;;;;8083367;29;20054;-70
2023/10/26 19:04:54;;;;;;;13.23;2.23;;;;;;;;;;8087153;29;20439;-70
2023/10/26 19:08:55;;;;;;;17.80;2.13;;;;;;;;;;8083963;29;20318;-70
2023/10/26 19:12:55;;;;;;;10.67;2.40;;;;;;;;;;8078586;28;20055;-70
2023/10/26 19:16:55;;;;;;;12.63;2.15;;;;;;;;;;8089067;29;21064;-70
2023/10/26 19:20:55;;;;;;;12.30;2.03;;;;;;;;;;8081372;29;20036;-71
2023/10/26 19:24:55;;;;;;;16.10;3.13;;;;;;;;;;8086862;29;20028;-71
2023/10/26 19:28:56;;;;;;;13.40;2.50;;;;;;;;;;8088075;29;20363;-71
2023/10/26 19:32:56;;;;;;;8.05;2.15;;;;;;;;;;8083404;29;20960;-71
2023/10/26 19:36:58;;;;;;;12.35;2.80;;;;;;;;;;8091885;29;20020;-71
2023/10/26 19:40:58;;;;;;;16.58;2.45;;;;;;;;;;8089422;29;20036;-71
2023/10/26 19:44:58;;;;;;;15.82;2.55;;;;;;;;;;8086185;29;20043;-71
2023/10/26 19:48:58;;;;;;;13.32;2.42;;;;;;;;;;8086352;29;20067;-71
2023/10/26 19:52:58;;;;;;;12.95;2.22;;;;;;;;;;8086850;29;20054;-71
2023/10/26 19:56:59;;;;;;;11.25;2.17;;;;;;;;;;8084473;29;20135;-71
2023/10/26 20:00:59;;;;;;;11.10;2.23;;;;;;;;;;8085097;29;20043;-71
2023/10/26 20:04:59;;;;;;;9.98;2.17;;;;;;;;;;8084347;29;20283;-71
2023/10/26 20:08:59;;;;;;;11.82;2.40;;;;;;;;;;8087848;29;20123;-71
2023/10/26 20:13:00;;;;;;;12.27;2.15;;;;;;;;;;8081790;29;20149;-71
2023/10/26 20:17:00;;;;;;;11.38;2.65;;;;;;;;;;8083039;29;20048;-71
2023/10/26 20:21:00;;;;;;;12.43;2.80;;;;;;;;;;8075814;29;20027;-71
2023/10/26 20:25:01;;;;;;;13.48;2.70;;;;;;;;;;8082296;29;21047;-71
2023/10/26 20:29:01;;;;;;;10.32;2.00;;;;;;;;;;8080036;29;20032;-71
2023/10/26 20:33:04;;;;;;;8.23;2.47;;;;;;;;;;8081792;29;20075;-71
2023/10/26 20:37:04;;;;;;;14.40;2.70;;;;;;;;;;8086426;29;20043;-71
2023/10/26 20:41:05;;;;;;;8.35;2.25;;;;;;;;;;8084739;29;20035;-71
2023/10/26 20:45:06;;;;;;;12.85;2.53;;;;;;;;;;8083112;29;20024;-71
2023/10/26 20:49:06;;;;;;;10.27;2.45;;;;;;;;;;8085302;29;20092;-71
2023/10/26 20:53:06;;;;;;;11.65;2.47;;;;;;;;;;8085470;29;20027;-71
2023/10/26 20:57:06;;;;;;;18.13;3.03;;;;;;;;;;8088141;29;20024;-71
2023/10/26 21:01:12;;;;;;;15.18;3.10;;;;;;;;;;8078262;29;20048;-71
2023/10/26 21:05:13;;;;;;;12.07;2.60;;;;;;;;;;8071266;29;20030;-71
2023/10/26 21:09:14;;;;;;;14.10;2.70;;;;;;;;;;8069953;29;20035;-71
2023/10/26 21:13:14;;;;;;;12.35;2.40;;;;;;;;;;8069096;29;20028;-71
2023/10/26 21:17:14;;;;;;;10.35;2.58;;;;;;;;;;8067451;29;20768;-71
2023/10/26 21:21:15;;;;;;;16.05;3.08;;;;;;;;;;8068056;29;20024;-71
2023/10/26 21:25:15;;;;;;;10.70;2.60;;;;;;;;;;8075439;29;20103;-71
2023/10/26 21:29:15;;;;;;;14.02;2.60;;;;;;;;;;8068143;29;20020;-71
2023/10/26 21:33:15;;;;;;;11.93;2.50;;;;;;;;;;8066984;29;20048;-71
2023/10/26 21:37:16;;;;;;;13.00;2.83;;;;;;;;;;8073076;29;20734;-72
2023/10/26 21:41:16;;;;;;;12.07;2.25;;;;;;;;;;8089565;29;20163;-71
2023/10/26 21:45:17;;;;;;;7.22;2.38;;;;;;;;;;8087669;29;20808;-71
2023/10/26 21:49:17;;;;;;;9.52;2.35;;;;;;;;;;8090240;29;20024;-71
2023/10/26 21:53:17;;;;;;;11.95;2.90;;;;;;;;;;8088856;29;20028;-71
2023/10/26 21:57:17;;;;;;;11.75;2.40;;;;;;;;;;8096930;29;20675;-71
2023/10/26 22:01:20;;;;;;;11.40;2.58;;;;;;;;;;8087998;29;20063;-71
2023/10/26 22:05:21;;;;;;;20.42;2.80;;;;;;;;;;8089893;29;20144;-71
2023/10/26 22:09:23;;;;;;;10.93;2.72;;;;;;;;;;8086514;29;20031;-71
2023/10/26 22:13:23;;;;;;;12.85;2.50;;;;;;;;;;8086587;29;20036;-72
2023/10/26 22:17:24;;;;;;;13.90;2.33;;;;;;;;;;8089487;29;20059;-70
2023/10/26 22:21:24;;;;;;;12.20;2.47;;;;;;;;;;8088296;29;20031;-71
2023/10/26 22:25:24;;;;;;;11.25;2.20;;;;;;;;;;8086610;29;20129;-71
2023/10/26 22:29:25;;;;;;;10.95;2.60;;;;;;;;;;8085101;29;20028;-71
2023/10/26 22:33:25;;;;;;;14.70;2.67;;;;;;;;;;8086131;29;20051;-71
2023/10/26 22:37:25;;;;;;;8.70;2.10;;;;;;;;;;8088695;29;20038;-71
2023/10/26 22:41:25;;;;;;;10.15;2.40;;;;;;;;;;8087702;29;20035;-71
2023/10/26 22:45:25;;;;;;;5.03;2.00;;;;;;;;;;8088428;29;20481;-71
2023/10/26 22:49:26;;;;;;;9.23;2.30;;;;;;;;;;8090078;29;20155;-72
2023/10/26 22:53:26;;;;;;;4.07;1.80;;;;;;;;;;8095325;29;20031;-70
2023/10/26 22:57:26;;;;;;;4.70;1.85;;;;;;;;;;8094189;29;20034;-71
2023/10/26 23:01:27;;;;;;;8.98;2.47;;;;;;;;;;8089861;29;20446;-71
2023/10/26 23:05:27;;;;;;;5.28;2.25;;;;;;;;;;8097617;29;20118;-71
2023/10/26 23:09:27;;;;;;;6.32;2.72;;;;;;;;;;8094286;29;20027;-70
2023/10/26 23:13:27;;;;;;;4.50;2.55;;;;;;;;;;8095145;29;20035;-71
2023/10/26 23:17:27;;;;;;;6.82;1.88;;;;;;;;;;8087497;29;20055;-71
2023/10/26 23:21:28;;;;;;;5.13;2.00;;;;;;;;;;8088836;29;20028;-71
2023/10/26 23:25:28;;;;;;;4.80;2.22;;;;;;;;;;8093041;29;20039;-71
2023/10/26 23:29:29;;;;;;;5.22;2.53;;;;;;;;;;8094811;29;20039;-71
2023/10/26 23:33:33;;;;;;;6.30;2.53;;;;;;;;;;8095837;29;20075;-71
2023/10/26 23:37:33;;;;;;;6.28;2.40;;;;;;;;;;8097574;29;20195;-71
2023/10/26 23:41:33;;;;;;;6.13;2.60;;;;;;;;;;8095137;29;20016;-71
2023/10/26 23:45:33;;;;;;;9.55;2.50;;;;;;;;;;8093341;29;20032;-70
2023/10/26 23:49:33;;;;;;;11.63;2.65;;;;;;;;;;8093396;29;20035;-71
2023/10/26 23:53:34;;;;;;;13.35;2.83;;;;;;;;;;8097576;29;20118;-71
2023/10/26 23:57:34;;;;;;;10.30;2.55;;;;;;;;;;8094808;29;20028;-72
